Midway, Kentucky
Current Conditions -  °F | °C
As of 10:54 AM on Tuesday 21 Oct 2014 (Local Time) from KLEX Reporting Station
Overcast Overcast  
Wind Chill: 54°   Ceiling: 5000
Heat Index: 54°   Visibility: 10mi
Dew Point: 46°   Wind: 12mph
Humidity: 75%   Direction: 310°NW
Pressure: 30.05"   Gusts: NA
Location:  38.15°N, 84.68°W
Report Text: KLEX 211454Z 31010KT 10SM FEW014 OVC050 12/08 A3005 RMK AO2 SLP173 T01220078 51019
Loading
Personal Weather Stations






























Interactive Weather Map
Tropical Storm Tracking
New forecast layout! Learn more

10-Day Weather Forecast

Advertisements
Track Severe Weather on mobile